createdAt,value
2023-03-17T00:01:16.334Z,59.57
2023-03-17T00:03:45.549Z,59.54
2023-03-17T00:06:16.656Z,59.39
2023-03-17T00:08:45.725Z,59.10
2023-03-17T00:11:14.945Z,59.56
2023-03-17T00:13:42.154Z,59.78
2023-03-17T00:16:16.664Z,59.94
2023-03-17T00:18:43.742Z,59.69
2023-03-17T00:21:14.654Z,60.01
2023-03-17T00:23:49.613Z,59.93
2023-03-17T00:26:16.311Z,60.21
2023-03-17T00:28:43.350Z,60.18
2023-03-17T00:31:22.211Z,59.79
2023-03-17T00:33:52.183Z,59.60
2023-03-17T00:36:24.066Z,59.69
2023-03-17T00:38:52.572Z,60.19
2023-03-17T00:41:19.180Z,59.93
2023-03-17T00:43:46.591Z,59.81
2023-03-17T00:46:16.588Z,60.30
2023-03-17T00:48:45.236Z,60.56
2023-03-17T00:51:12.894Z,60.54
2023-03-17T00:53:39.804Z,60.74
2023-03-17T00:56:13.381Z,60.98
2023-03-17T00:58:41.565Z,60.63
2023-03-17T01:01:09.894Z,61.19
2023-03-17T01:03:36.630Z,61.28
2023-03-17T01:06:04.844Z,61.29
2023-03-17T01:08:32.204Z,62.14
2023-03-17T01:10:59.532Z,61.99
2023-03-17T01:13:26.317Z,61.91
2023-03-17T01:15:55.752Z,62.35
2023-03-17T01:18:23.116Z,62.04
2023-03-17T01:20:50.663Z,62.25
2023-03-17T01:23:18.334Z,62.21
2023-03-17T01:25:45.506Z,62.43
2023-03-17T01:28:14.850Z,62.34
2023-03-17T01:30:41.384Z,62.23
2023-03-17T01:33:10.480Z,63.09
2023-03-17T01:35:38.440Z,63.27
2023-03-17T01:38:06.012Z,63.40
2023-03-17T01:40:35.766Z,63.22
2023-03-17T01:43:17.534Z,63.42
2023-03-17T01:46:21.530Z,63.69
2023-03-17T01:49:10.320Z,63.81
2023-03-17T01:52:02.618Z,64.33
2023-03-17T01:54:38.237Z,64.46
2023-03-17T01:57:23.347Z,63.80
2023-03-17T01:59:54.395Z,64.52
2023-03-17T02:02:25.951Z,64.46
2023-03-17T02:04:53.112Z,65.10
2023-03-17T02:07:22.149Z,65.34
2023-03-17T02:09:49.554Z,65.66
2023-03-17T02:12:22.536Z,65.88
2023-03-17T02:14:49.649Z,65.67
2023-03-17T02:17:16.206Z,65.79
2023-03-17T02:19:42.805Z,66.29
2023-03-17T02:22:09.422Z,65.49
2023-03-17T02:24:40.558Z,66.49
2023-03-17T02:27:14.687Z,66.00
2023-03-17T02:29:42.031Z,65.95
2023-03-17T02:32:10.000Z,65.99
2023-03-17T02:34:37.300Z,67.07
2023-03-17T02:37:04.605Z,66.86
2023-03-17T02:39:33.059Z,67.44
2023-03-17T02:41:59.870Z,66.98
2023-03-17T02:44:27.015Z,66.96
2023-03-17T02:46:54.845Z,67.26
2023-03-17T02:49:22.173Z,67.11
2023-03-17T02:51:48.645Z,68.02
2023-03-17T02:54:15.428Z,67.92
2023-03-17T02:56:41.957Z,67.98
2023-03-17T02:59:08.764Z,68.84
2023-03-17T03:01:35.551Z,67.96
2023-03-17T03:04:02.511Z,68.44
2023-03-17T03:06:31.678Z,68.12
2023-03-17T03:08:58.656Z,67.53
2023-03-17T03:11:25.535Z,68.57
2023-03-17T03:13:52.192Z,68.04
2023-03-17T03:16:18.695Z,68.33
2023-03-17T03:18:45.797Z,69.33
2023-03-17T03:21:12.427Z,69.34
2023-03-17T03:23:38.973Z,68.97
2023-03-17T03:26:05.645Z,68.94
2023-03-17T03:28:32.335Z,69.55
2023-03-17T03:30:58.870Z,69.31
2023-03-17T03:33:25.780Z,70.34
2023-03-17T03:35:52.694Z,69.63
2023-03-17T03:38:19.222Z,70.30
2023-03-17T03:40:45.968Z,71.47
2023-03-17T03:43:22.988Z,70.87
2023-03-17T03:45:50.430Z,71.76
2023-03-17T03:48:16.957Z,71.89
2023-03-17T03:50:43.756Z,71.53
2023-03-17T03:53:10.231Z,71.59
2023-03-17T03:55:37.106Z,71.75
2023-03-17T03:58:03.592Z,71.26
2023-03-17T04:00:30.237Z,71.53
2023-03-17T04:02:56.846Z,71.51
2023-03-17T04:05:23.599Z,71.63
2023-03-17T04:07:50.033Z,72.37
2023-03-17T04:10:17.026Z,72.73
2023-03-17T04:12:43.589Z,72.61
2023-03-17T04:15:14.011Z,72.59
2023-03-17T04:17:41.201Z,72.83
2023-03-17T04:20:08.889Z,73.24
2023-03-17T04:22:35.427Z,73.60
2023-03-17T04:25:03.108Z,72.96
2023-03-17T04:27:29.557Z,73.25
2023-03-17T04:29:56.008Z,73.12
2023-03-17T04:32:22.464Z,73.07
2023-03-17T04:34:48.915Z,73.18
2023-03-17T04:37:15.653Z,74.15
2023-03-17T04:39:42.206Z,74.19
2023-03-17T04:42:08.957Z,74.47
2023-03-17T04:44:36.610Z,74.13
2023-03-17T04:47:03.232Z,74.45
2023-03-17T04:49:29.799Z,74.71
2023-03-17T04:51:56.259Z,74.77
2023-03-17T04:54:22.948Z,74.61
2023-03-17T04:56:49.410Z,75.00
2023-03-17T04:59:16.263Z,74.55
2023-03-17T05:01:42.698Z,75.56
2023-03-17T05:04:11.135Z,75.38
2023-03-17T05:06:39.687Z,75.21
2023-03-17T05:09:06.247Z,75.41
2023-03-17T05:11:32.761Z,76.12
2023-03-17T05:13:59.489Z,76.24
2023-03-17T05:16:26.065Z,76.66
2023-03-17T05:18:52.585Z,76.04
2023-03-17T05:21:19.024Z,76.26
2023-03-17T05:23:45.474Z,76.60
2023-03-17T05:26:11.992Z,77.05
2023-03-17T05:28:38.434Z,76.86
2023-03-17T05:31:05.299Z,76.65
2023-03-17T05:33:31.790Z,77.10
2023-03-17T05:35:58.393Z,77.17
2023-03-17T05:38:25.093Z,77.32
2023-03-17T05:40:52.678Z,77.79
2023-03-17T05:43:19.493Z,77.51
2023-03-17T05:45:47.282Z,76.95
2023-03-17T05:48:13.801Z,76.74
2023-03-17T05:50:41.683Z,77.46
2023-03-17T05:53:08.569Z,76.86
2023-03-17T05:55:35.241Z,76.93
2023-03-17T05:58:04.366Z,77.01
2023-03-17T06:00:31.555Z,77.06
2023-03-17T06:02:58.428Z,77.25
2023-03-17T06:05:24.941Z,77.08
2023-03-17T06:07:55.769Z,77.82
2023-03-17T06:10:24.119Z,77.26
2023-03-17T06:12:50.922Z,77.39
2023-03-17T06:15:17.492Z,77.49
2023-03-17T06:17:44.590Z,77.44
2023-03-17T06:20:11.941Z,77.90
2023-03-17T06:22:44.070Z,77.97
2023-03-17T06:25:15.586Z,77.29
2023-03-17T06:27:42.632Z,76.94
2023-03-17T06:30:10.168Z,77.28
2023-03-17T06:32:36.675Z,77.09
2023-03-17T06:35:05.261Z,77.50
2023-03-17T06:37:31.840Z,77.03
2023-03-17T06:39:58.415Z,76.92
2023-03-17T06:42:24.880Z,76.71
2023-03-17T06:44:52.621Z,76.83
2023-03-17T06:47:19.686Z,76.08
2023-03-17T06:49:46.497Z,76.54
2023-03-17T06:52:13.500Z,76.24
2023-03-17T06:54:41.288Z,76.60
2023-03-17T06:57:07.994Z,76.64
2023-03-17T06:59:34.499Z,76.84
2023-03-17T07:02:01.444Z,76.63
2023-03-17T07:04:33.130Z,76.35
2023-03-17T07:07:02.597Z,76.36
2023-03-17T07:09:29.578Z,75.83
2023-03-17T07:11:58.215Z,75.08
2023-03-17T07:14:25.636Z,75.06
2023-03-17T07:16:52.188Z,75.11
2023-03-17T07:19:18.800Z,74.94
2023-03-17T07:21:47.029Z,74.92
2023-03-17T07:24:13.645Z,74.72
2023-03-17T07:26:40.192Z,74.29
2023-03-17T07:29:06.631Z,74.06
2023-03-17T07:31:33.117Z,74.24
2023-03-17T07:33:59.574Z,73.56
2023-03-17T07:36:26.223Z,73.08
2023-03-17T07:38:52.692Z,72.75
2023-03-17T07:41:22.202Z,72.64
2023-03-17T07:43:48.682Z,72.45
2023-03-17T07:46:15.210Z,72.50
2023-03-17T07:48:43.325Z,73.09
2023-03-17T07:51:15.519Z,72.72
2023-03-17T07:53:42.626Z,72.25
2023-03-17T07:56:09.394Z,72.31
2023-03-17T07:58:35.969Z,72.15
2023-03-17T08:01:03.390Z,71.98
2023-03-17T08:03:32.830Z,71.91
2023-03-17T08:06:00.661Z,71.25
2023-03-17T08:08:29.309Z,71.00
2023-03-17T08:11:03.522Z,71.39
2023-03-17T08:13:31.390Z,71.03
2023-03-17T08:15:58.200Z,70.83
2023-03-17T08:18:24.974Z,71.18
2023-03-17T08:20:52.158Z,70.87
2023-03-17T08:23:20.390Z,70.02
2023-03-17T08:25:47.870Z,69.21
2023-03-17T08:28:15.279Z,69.26
2023-03-17T08:30:43.017Z,68.58
2023-03-17T08:33:09.851Z,68.00
2023-03-17T08:35:39.767Z,67.14
2023-03-17T08:38:06.434Z,67.08
2023-03-17T08:40:33.152Z,66.54
2023-03-17T08:42:59.776Z,65.28
2023-03-17T08:45:26.623Z,64.59
2023-03-17T08:47:53.448Z,65.16
2023-03-17T08:50:23.334Z,63.83
2023-03-17T08:52:51.719Z,63.87
2023-03-17T08:55:19.390Z,62.96
2023-03-17T08:57:45.935Z,63.04
2023-03-17T09:00:15.324Z,62.57
2023-03-17T09:02:43.172Z,62.73
2023-03-17T09:05:12.761Z,61.98
2023-03-17T09:07:40.076Z,61.81
2023-03-17T09:10:14.823Z,60.67
2023-03-17T09:12:41.538Z,60.85
2023-03-17T09:15:08.716Z,60.19
2023-03-17T09:17:35.179Z,60.19
2023-03-17T09:20:01.790Z,60.00
2023-03-17T09:22:28.291Z,60.31
2023-03-17T09:24:54.717Z,59.24
2023-03-17T09:27:21.289Z,59.18
2023-03-17T09:29:47.757Z,59.10
2023-03-17T09:32:15.303Z,58.76
2023-03-17T09:34:41.992Z,58.88
2023-03-17T09:37:09.749Z,58.43
2023-03-17T09:39:36.449Z,58.30
2023-03-17T09:42:08.711Z,58.11
2023-03-17T09:44:35.186Z,58.23
2023-03-17T09:47:27.894Z,58.07
2023-03-17T09:50:12.800Z,58.25
2023-03-17T09:52:39.356Z,58.08
2023-03-17T09:55:11.818Z,57.92
2023-03-17T09:57:40.460Z,57.72
2023-03-17T10:00:20.744Z,57.75
2023-03-17T10:02:47.297Z,58.28
2023-03-17T10:05:20.505Z,57.21
2023-03-17T10:07:57.077Z,57.85
2023-03-17T10:10:42.396Z,57.29
2023-03-17T10:13:34.799Z,57.44
2023-03-17T10:16:07.617Z,56.82
2023-03-17T10:18:45.111Z,56.75
2023-03-17T10:21:17.929Z,56.44
2023-03-17T10:23:45.593Z,56.29
2023-03-17T10:26:39.822Z,56.20
2023-03-17T10:29:14.816Z,56.34
2023-03-17T10:31:41.397Z,56.29
2023-03-17T10:34:21.325Z,56.06
2023-03-17T10:36:51.408Z,55.63
2023-03-17T10:39:21.117Z,55.47
2023-03-17T10:41:56.980Z,55.93
2023-03-17T10:44:40.435Z,55.17
2023-03-17T10:47:21.664Z,55.71
2023-03-17T10:49:48.235Z,55.55
2023-03-17T10:52:28.125Z,55.10
2023-03-17T10:54:54.853Z,54.92
2023-03-17T10:57:22.127Z,54.65
2023-03-17T10:59:53.690Z,54.20
2023-03-17T11:02:25.804Z,54.11
2023-03-17T11:05:01.198Z,54.12
2023-03-17T11:07:34.881Z,53.51
2023-03-17T11:10:03.074Z,53.59
2023-03-17T11:12:40.144Z,52.86
2023-03-17T11:15:13.062Z,53.10
2023-03-17T11:18:12.678Z,52.98
2023-03-17T11:21:01.761Z,52.74
2023-03-17T11:23:47.305Z,52.60
2023-03-17T11:26:47.611Z,51.62
2023-03-17T11:29:35.808Z,52.38
2023-03-17T11:32:11.531Z,52.55
2023-03-17T11:34:56.844Z,52.23
2023-03-17T11:37:34.089Z,51.60
2023-03-17T11:40:18.386Z,52.00
2023-03-17T11:43:03.494Z,51.48
2023-03-17T11:45:54.574Z,52.07
2023-03-17T11:48:38.190Z,52.78
2023-03-17T11:51:27.437Z,51.97
2023-03-17T11:54:08.087Z,52.43
2023-03-17T11:56:48.648Z,51.52
2023-03-17T11:59:28.799Z,51.59
2023-03-17T12:02:15.143Z,51.17
2023-03-17T12:04:57.253Z,50.47
2023-03-17T12:07:48.231Z,49.82
2023-03-17T12:10:28.525Z,50.00
2023-03-17T12:13:07.242Z,49.07
2023-03-17T12:15:48.409Z,49.11
2023-03-17T12:18:21.022Z,48.62
2023-03-17T12:21:00.102Z,48.91
2023-03-17T12:23:56.944Z,48.73
2023-03-17T12:26:37.113Z,47.65
2023-03-17T12:29:16.616Z,47.84
2023-03-17T12:31:48.940Z,48.02
2023-03-17T12:34:25.795Z,47.84
2023-03-17T12:36:52.849Z,47.08
2023-03-17T12:39:27.168Z,47.61
2023-03-17T12:41:59.791Z,47.90
2023-03-17T12:45:04.460Z,47.35
2023-03-17T12:47:46.489Z,47.60
2023-03-17T12:50:27.136Z,47.28
2023-03-17T12:53:12.379Z,47.06
2023-03-17T12:55:39.223Z,46.80
2023-03-17T12:58:35.672Z,46.59
2023-03-17T13:01:25.734Z,45.95
2023-03-17T13:04:13.332Z,46.25
2023-03-17T13:06:46.159Z,46.42
2023-03-17T13:09:31.837Z,46.06
2023-03-17T13:12:00.187Z,45.96
2023-03-17T13:14:39.022Z,45.88
2023-03-17T13:17:28.829Z,45.83
2023-03-17T13:20:07.586Z,45.66
2023-03-17T13:23:00.474Z,45.82
2023-03-17T13:25:48.250Z,45.99
2023-03-17T13:28:23.008Z,45.91
2023-03-17T13:31:16.534Z,46.10
2023-03-17T13:33:52.087Z,45.84
2023-03-17T13:36:55.980Z,45.83
2023-03-17T13:39:37.895Z,45.83
2023-03-17T13:42:23.251Z,45.56
2023-03-17T13:45:33.973Z,45.31
2023-03-17T13:48:37.847Z,45.07
2023-03-17T13:51:25.763Z,43.60
2023-03-17T13:53:56.943Z,43.72
2023-03-17T13:56:48.243Z,44.11
2023-03-17T13:59:19.987Z,44.07
2023-03-17T14:02:01.311Z,43.51
2023-03-17T14:04:35.427Z,42.72
2023-03-17T14:07:06.911Z,41.97
2023-03-17T14:09:37.762Z,42.06
2023-03-17T14:12:12.997Z,42.09
2023-03-17T14:15:21.513Z,42.06
2023-03-17T14:17:53.471Z,42.23
2023-03-17T14:20:26.054Z,42.37
2023-03-17T14:22:59.939Z,41.84
2023-03-17T14:25:32.917Z,42.00
2023-03-17T14:28:00.165Z,41.77
2023-03-17T14:30:29.589Z,41.88
2023-03-17T14:33:11.944Z,41.34
2023-03-17T14:35:42.935Z,41.18
2023-03-17T14:38:23.953Z,41.10
2023-03-17T14:40:59.338Z,40.21
2023-03-17T14:43:27.181Z,40.74
2023-03-17T14:46:02.889Z,40.80
2023-03-17T14:48:35.427Z,41.11
2023-03-17T14:51:06.619Z,41.04
2023-03-17T14:53:41.337Z,40.74
2023-03-17T14:56:07.948Z,40.89
2023-03-17T14:58:41.509Z,40.51
2023-03-17T15:01:36.564Z,41.39
2023-03-17T15:04:25.678Z,40.96
2023-03-17T15:06:55.300Z,40.67
2023-03-17T15:09:27.857Z,40.61
2023-03-17T15:11:58.141Z,39.63
2023-03-17T15:14:29.813Z,39.91
2023-03-17T15:16:56.641Z,40.43
2023-03-17T15:19:29.708Z,40.77
2023-03-17T15:21:59.897Z,40.44
2023-03-17T15:24:40.627Z,40.32
2023-03-17T15:27:17.062Z,40.65
2023-03-17T15:29:44.122Z,40.84
2023-03-17T15:32:38.106Z,40.96
2023-03-17T15:35:06.292Z,41.09
2023-03-17T15:37:34.667Z,41.12
2023-03-17T15:40:03.294Z,41.47
2023-03-17T15:42:36.356Z,41.43
2023-03-17T15:45:04.089Z,41.88
2023-03-17T15:47:36.728Z,42.19
2023-03-17T15:50:16.332Z,42.54
2023-03-17T15:52:43.884Z,42.57
2023-03-17T15:55:20.879Z,42.69
2023-03-17T15:57:54.816Z,43.40
2023-03-17T16:00:24.126Z,43.48
2023-03-17T16:02:57.258Z,43.79
2023-03-17T16:05:33.463Z,43.77
2023-03-17T16:07:59.932Z,44.19
2023-03-17T16:10:29.748Z,44.45
2023-03-17T16:12:56.669Z,44.73
2023-03-17T16:15:26.125Z,44.78
2023-03-17T16:17:55.582Z,44.85
2023-03-17T16:20:26.980Z,45.19
2023-03-17T16:22:57.058Z,45.11
2023-03-17T16:25:29.436Z,45.41
2023-03-17T16:27:58.947Z,45.38
2023-03-17T16:30:28.946Z,45.68
2023-03-17T16:33:02.080Z,45.95
2023-03-17T16:35:28.697Z,46.13
2023-03-17T16:37:55.524Z,46.42
2023-03-17T16:40:25.073Z,47.11
2023-03-17T16:42:52.316Z,47.14
2023-03-17T16:45:27.987Z,47.87
2023-03-17T16:47:55.861Z,48.06
2023-03-17T16:50:26.666Z,48.58
2023-03-17T16:52:53.141Z,48.84
2023-03-17T16:55:21.496Z,49.14
2023-03-17T16:57:50.771Z,49.65
2023-03-17T17:00:23.544Z,49.54
2023-03-17T17:02:50.099Z,49.95
2023-03-17T17:05:20.044Z,50.26
2023-03-17T17:07:47.889Z,50.44
2023-03-17T17:10:18.634Z,50.20
2023-03-17T17:12:46.032Z,50.64
2023-03-17T17:15:14.483Z,50.84
2023-03-17T17:17:43.946Z,50.99
2023-03-17T17:20:21.428Z,51.01
2023-03-17T17:22:48.792Z,51.41
2023-03-17T17:25:16.374Z,51.41
2023-03-17T17:27:44.846Z,51.81
2023-03-17T17:30:17.156Z,51.69
2023-03-17T17:32:45.104Z,51.69
2023-03-17T17:35:13.033Z,51.66
2023-03-17T17:37:39.611Z,52.01
2023-03-17T17:40:08.728Z,51.99
2023-03-17T17:42:35.441Z,51.97
2023-03-17T17:45:02.382Z,51.84
2023-03-17T17:47:32.197Z,52.08
2023-03-17T17:49:59.339Z,52.55
2023-03-17T17:52:26.436Z,52.69
2023-03-17T17:54:52.899Z,52.91
2023-03-17T17:57:19.683Z,52.59
2023-03-17T17:59:46.262Z,52.92
2023-03-17T18:02:13.160Z,53.02
2023-03-17T18:04:39.881Z,53.24
2023-03-17T18:07:06.366Z,53.08
2023-03-17T18:09:32.981Z,53.01
2023-03-17T18:11:59.515Z,53.14
2023-03-17T18:14:26.606Z,53.47
2023-03-17T18:16:53.643Z,53.60
2023-03-17T18:19:20.498Z,53.68
2023-03-17T18:21:47.026Z,53.99
2023-03-17T18:24:14.584Z,53.98
2023-03-17T18:26:41.632Z,54.50
2023-03-17T18:29:09.202Z,54.51
2023-03-17T18:31:49.037Z,55.10
2023-03-17T18:34:27.038Z,55.41
2023-03-17T18:36:57.629Z,55.67
2023-03-17T18:39:24.221Z,56.24
2023-03-17T18:41:50.956Z,56.27
2023-03-17T18:44:18.892Z,56.47
2023-03-17T18:46:45.467Z,56.86
2023-03-17T18:49:12.024Z,56.97
2023-03-17T18:51:38.669Z,57.36
2023-03-17T18:54:06.055Z,57.41
2023-03-17T18:56:32.609Z,57.98
2023-03-17T18:58:59.832Z,57.91
2023-03-17T19:01:27.137Z,58.37
2023-03-17T19:03:54.042Z,58.53
2023-03-17T19:06:22.089Z,58.57
2023-03-17T19:08:48.604Z,58.67
2023-03-17T19:11:18.377Z,59.06
2023-03-17T19:13:45.580Z,59.20
2023-03-17T19:16:12.494Z,59.44
2023-03-17T19:18:41.891Z,59.66
2023-03-17T19:21:09.597Z,60.02
2023-03-17T19:23:38.157Z,60.57
2023-03-17T19:26:05.953Z,60.39
2023-03-17T19:28:32.897Z,60.77
2023-03-17T19:30:59.614Z,61.09
2023-03-17T19:33:26.149Z,61.10
2023-03-17T19:35:58.557Z,61.24
2023-03-17T19:38:27.079Z,61.05
2023-03-17T19:40:53.700Z,60.58
2023-03-17T19:43:39.024Z,60.55
2023-03-17T19:46:07.862Z,60.12
2023-03-17T19:48:35.567Z,60.15
2023-03-17T19:51:02.207Z,60.47
2023-03-17T19:53:28.854Z,60.72
2023-03-17T19:55:56.769Z,60.31
2023-03-17T19:58:23.192Z,60.38
2023-03-17T20:00:49.643Z,60.77
2023-03-17T20:03:16.556Z,60.49
2023-03-17T20:05:45.750Z,60.08
2023-03-17T20:08:12.280Z,60.11
2023-03-17T20:10:39.215Z,60.40
2023-03-17T20:13:06.393Z,60.13
2023-03-17T20:15:34.493Z,60.31
2023-03-17T20:18:01.009Z,60.35
2023-03-17T20:20:27.765Z,60.48
2023-03-17T20:22:54.243Z,60.60
2023-03-17T20:25:21.790Z,60.38
2023-03-17T20:27:48.406Z,60.83
2023-03-17T20:30:15.279Z,60.80
2023-03-17T20:32:41.928Z,60.63
2023-03-17T20:35:08.945Z,60.58
2023-03-17T20:37:35.862Z,60.65
2023-03-17T20:40:05.093Z,60.49
2023-03-17T20:42:31.554Z,60.41
2023-03-17T20:44:58.080Z,59.99
2023-03-17T20:47:24.848Z,60.31
2023-03-17T20:49:53.098Z,60.44
2023-03-17T20:52:19.818Z,60.69
2023-03-17T20:54:46.764Z,60.61
2023-03-17T20:57:16.053Z,60.25
2023-03-17T20:59:43.759Z,60.48
2023-03-17T21:02:14.389Z,60.46
2023-03-17T21:04:42.814Z,60.78
2023-03-17T21:07:09.502Z,60.75
2023-03-17T21:09:36.517Z,61.19
2023-03-17T21:12:02.968Z,61.22
2023-03-17T21:14:29.506Z,60.64
2023-03-17T21:16:57.772Z,61.49
2023-03-17T21:19:24.514Z,61.57
2023-03-17T21:21:50.935Z,61.68
2023-03-17T21:24:26.689Z,61.91
2023-03-17T21:26:53.388Z,61.65
2023-03-17T21:29:20.902Z,61.62
2023-03-17T21:31:47.583Z,61.37
2023-03-17T21:34:14.094Z,61.88
2023-03-17T21:36:40.565Z,61.65
2023-03-17T21:39:07.208Z,61.69
2023-03-17T21:41:36.386Z,61.70
2023-03-17T21:44:03.667Z,61.55
2023-03-17T21:46:31.905Z,61.83
2023-03-17T21:48:58.817Z,62.12
2023-03-17T21:51:26.132Z,61.81
2023-03-17T21:53:53.796Z,61.84
2023-03-17T21:56:21.027Z,62.13
2023-03-17T21:58:49.087Z,61.94
2023-03-17T22:01:17.534Z,61.99
2023-03-17T22:03:44.533Z,61.66
2023-03-17T22:06:13.190Z,62.27
2023-03-17T22:08:39.707Z,62.03
2023-03-17T22:11:10.790Z,61.89
2023-03-17T22:13:37.734Z,62.21
2023-03-17T22:16:05.079Z,62.19
2023-03-17T22:18:32.537Z,62.46
2023-03-17T22:20:59.730Z,62.84
2023-03-17T22:23:26.499Z,62.96
2023-03-17T22:25:53.256Z,63.39
2023-03-17T22:28:19.858Z,63.42
2023-03-17T22:30:46.443Z,63.24
2023-03-17T22:33:13.604Z,63.52
2023-03-17T22:35:41.191Z,63.73
2023-03-17T22:38:08.721Z,63.64
2023-03-17T22:40:36.232Z,63.75
2023-03-17T22:43:03.377Z,64.11
2023-03-17T22:45:30.147Z,64.01
2023-03-17T22:47:56.606Z,63.78
2023-03-17T22:50:23.964Z,63.96
2023-03-17T22:52:50.756Z,64.05
2023-03-17T22:55:17.402Z,65.03
2023-03-17T22:57:44.046Z,64.56
2023-03-17T23:00:16.359Z,63.93
2023-03-17T23:02:46.505Z,63.53
2023-03-17T23:05:13.599Z,63.97
2023-03-17T23:07:50.333Z,63.93
2023-03-17T23:10:23.027Z,65.00
2023-03-17T23:12:50.835Z,65.51
2023-03-17T23:15:18.775Z,65.54
2023-03-17T23:17:46.793Z,65.87
2023-03-17T23:20:15.116Z,66.32
2023-03-17T23:22:41.583Z,66.19
2023-03-17T23:25:08.602Z,66.02
2023-03-17T23:27:35.158Z,66.38
2023-03-17T23:30:01.860Z,66.24
2023-03-17T23:32:28.396Z,66.67
2023-03-17T23:34:54.873Z,66.09
2023-03-17T23:37:21.679Z,66.49
2023-03-17T23:39:48.513Z,65.38
2023-03-17T23:42:16.970Z,65.77
2023-03-17T23:44:45.318Z,66.17
2023-03-17T23:47:14.862Z,66.12
2023-03-17T23:49:41.593Z,66.56
2023-03-17T23:52:08.903Z,66.79
2023-03-17T23:54:35.465Z,66.13
2023-03-17T23:57:02.853Z,66.42
2023-03-17T23:59:29.329Z,66.65
